• Join FlightAware (Why Join?)
  • Login
  • US Flag 
09:49PM EDT


 

Airport Tracker/Info


-or-


 

Live Flight TrackerFlight Track Log ✈ DAL6246 ✈ 08-May-2013 ✈ KLGA - KCHO

Flight Track Log - Related Links

Times and Time Zones

All times are in EDT time to prevent confusion due to time zone crossing. See the DAL6246 flight status page for this flight to view local times or setup timezone preferences in your user account.

Time Position Orientation Groundspeed Altitude Reporting Facility
EDT Latitude Longitude Course Direction KTS MPH feet Rate Location/Type
10:35PM 40.7667 -73.8333 246° West 156 180 1,800  Level New York TRACON
10:36PM 40.7167 -73.8667 207° Southwest 221 254 4,300 2,760 Climbing New York TRACON
10:37PM 40.7667 -73.9333 315° West 293 337 7,400 3,240 Climbing New York TRACON
10:38PM 40.7667 -74.0167 270° West 274 315 10,800 2,760 Climbing New York TRACON
10:40PM 40.7333 -74.1333 249° West 303 349 13,200 2,160 Climbing New York TRACON
10:41PM 40.5820 -74.4210 246° West  Level FlightAware Approximate
10:42PM 40.6289 -74.3942 242° Southwest 396 456 18,100  Level New York Center
10:43PM 40.5833 -74.5203 245° Southwest 383 441 20,000 1,800 Climbing New York Center
10:44PM 40.5375 -74.6514 245° Southwest 391 450 21,800 1,740 Climbing New York Center
10:45PM 40.4892 -74.7853 245° Southwest 397 457 23,500 1,620 Climbing New York Center
10:46PM 40.4386 -74.9239 244° Southwest 413 475 25,000 1,500 Climbing New York Center
10:47PM 40.3694 -75.0453 233° Southwest 418 481 26,500 1,440 Climbing New York Center
10:48PM 40.2906 -75.1572 227° Southwest 424 488 28,000 1,440 Climbing New York Center
10:49PM 40.2111 -75.2719 228° Southwest 429 494 29,500 1,500 Climbing New York Center
10:50PM 40.1319 -75.3808 226° Southwest 429 494 31,000 1,260 Climbing New York Center
10:51PM 40.0503 -75.4919 226° Southwest 429 494 32,000 480 Climbing New York Center
10:52PM 39.9664 -75.6083 227° Southwest 429 494 32,000  Level New York Center
10:53PM 39.8931 -75.7194 229° Southwest 441 507 32,000 -300 Level New York Center
10:54PM 39.8147 -75.8411 230° Southwest 446 513 31,500 -960 Descending New York Center
10:55PM 39.7367 -75.9594 229° Southwest 446 513 30,100 -2,100 Descending New York Center
10:57PM 39.5914 -76.1947 231° Southwest 423 487 25,300 -2,400 Descending Washington Center
10:58PM 39.5114 -76.3125 229° Southwest 428 493 22,900 -1,680 Descending Washington Center
10:59PM 39.4397 -76.4272 231° Southwest 428 493 22,000 -480 Descending Washington Center
11:00PM 39.3597 -76.5417 228° Southwest 428 493 22,000  Level Washington Center
11:01PM 39.2858 -76.6614 231° Southwest 433 498 22,000  Level Washington Center
11:02PM 39.2097 -76.7836 231° Southwest 433 498 22,000  Level Washington Center
11:03PM 39.1167 -76.9333 231° Southwest 428 493 22,000 -360 Level Potomac TRACON
11:04PM 39.0333 -77.0500 227° Southwest 424 488 21,300 -900 Descending Potomac TRACON
11:05PM 38.9500 -77.1500 223° Southwest 433 498 20,300 -1,020 Descending Potomac TRACON
11:06PM 38.8500 -77.2500 218° Southwest 442 509 19,300 -1,020 Descending Potomac TRACON
11:07PM 38.7667 -77.3500 223° Southwest 433 498 18,300 -660 Descending Potomac TRACON
11:08PM 38.6833 -77.4333 218° Southwest 422 486 18,000 -300 Descending Potomac TRACON
11:09PM 38.6125 -77.5128 221° Southwest 422 486 17,800 -840 Descending Washington Center
11:10PM 38.5192 -77.6136 220° Southwest 404 465 16,500 -1,380 Descending Washington Center
11:11PM 38.4447 -77.6964 221° Southwest 382 440 15,100 -1,440 Descending Washington Center
11:12PM 38.3789 -77.7661 220° Southwest 344 396 13,700 -1,440 Descending Washington Center
11:13PM 38.3128 -77.8383 221° Southwest 326 375 12,300 -900 Descending Washington Center
11:14PM 38.2489 -77.9053 219° Southwest 310 357 11,900 -840 Descending Washington Center
11:15PM 38.1850 -77.9744 220° Southwest 310 357 10,700 -1,260 Descending Washington Center
11:16PM 38.1294 -78.0442 225° Southwest 299 344 9,400 -1,320 Descending Washington Center
11:17PM 38.0819 -78.1189 231° Southwest 285 328 8,100 -1,140 Descending Washington Center
11:18PM 38.0433 -78.1783 230° Southwest 285 328 7,100 -1,380 Descending Washington Center
11:19PM 37.9828 -78.2683 230° Southwest 278 320 5,500 -1,500 Descending Washington Center
11:20PM 37.9353 -78.3406 230° Southwest 278 320 4,200 -1,140 Descending Washington Center
11:21PM 37.9025 -78.4050 237° Southwest 272 313 3,300 -300 Descending Washington Center
11:23PM 37.9667 -78.5167 306° West 185 213 3,300 -60 Level Potomac TRACON
11:24PM 38.0167 -78.5000 15° North 158 182 3,200 -540 Descending Potomac TRACON
11:25PM 38.0500 -78.4833 21° North 140 161 2,300 -660 Descending Potomac TRACON
11:26PM 38.0833 -78.4667 21° North 145 167 1,900 900 Descending Potomac TRACON
11:27PM 38.1500 -78.4500 11° North 219 252 4,100 1,020 Climbing Potomac TRACON
11:28PM 38.1667 -78.3667 76° East 254 292 4,000 180 Descending Potomac TRACON
11:29PM 38.1500 -78.3000 108° East 264 304 4,500 480 Climbing Potomac TRACON
11:30PM 38.0833 -78.3167 191° South 269 310 5,000 240 Climbing Potomac TRACON
11:31PM 38.0167 -78.3500 202° Southwest 256 295 5,000  Level Potomac TRACON
11:32PM 37.9500 -78.3167 158° South 263 303 5,000  Level Potomac TRACON
11:33PM 37.9167 -78.2333 117° Southeast 286 329 5,000  Level Potomac TRACON
11:34PM 37.8667 -78.1333 122° Southeast 285 328 5,100  Climbing Potomac TRACON
11:35PM 37.8333 -78.0500 117° Southeast 284 327 5,100  Level Potomac TRACON
11:36PM 37.8000 -77.9667 117° Southeast 280 322 5,100  Level Potomac TRACON
11:37PM 37.7500 -77.8833 127° Southeast 279 321 5,100 -300 Level Potomac TRACON
11:38PM 37.7000 -77.8167 133° Southeast 283 326 4,500 -600 Descending Potomac TRACON